createdAt,value
2022-10-01T00:00:29.419Z,11.88
2022-10-01T00:05:30.661Z,11.76
2022-10-01T00:10:32.563Z,11.75
2022-10-01T00:15:34.007Z,11.72
2022-10-01T00:20:35.327Z,11.74
2022-10-01T00:25:37.003Z,11.68
2022-10-01T00:30:40.468Z,11.59
2022-10-01T00:35:41.998Z,11.44
2022-10-01T00:40:43.271Z,11.30
2022-10-01T00:45:44.585Z,11.42
2022-10-01T00:50:48.961Z,11.36
2022-10-01T00:55:57.918Z,11.21
2022-10-01T01:00:59.524Z,11.30
2022-10-01T01:06:00.827Z,11.32
2022-10-01T01:11:23.090Z,11.46
2022-10-01T01:16:32.653Z,11.53
2022-10-01T01:21:42.517Z,11.55
2022-10-01T01:27:08.655Z,11.57
2022-10-01T01:32:40.225Z,11.51
2022-10-01T01:37:50.138Z,11.44
2022-10-01T01:42:55.139Z,11.52
2022-10-01T01:48:00.201Z,11.52
2022-10-01T01:53:02.037Z,11.50
2022-10-01T01:58:03.859Z,11.55
2022-10-01T02:03:06.654Z,11.47
2022-10-01T02:08:27.724Z,11.45
2022-10-01T02:13:57.232Z,11.34
2022-10-01T02:19:12.217Z,11.48
2022-10-01T02:24:19.557Z,11.42
2022-10-01T02:29:23.005Z,11.48
2022-10-01T02:34:29.381Z,11.42
2022-10-01T02:39:32.852Z,11.38
2022-10-01T02:44:40.163Z,11.40
2022-10-01T02:49:41.662Z,11.42
2022-10-01T02:54:50.911Z,11.50
2022-10-01T03:00:00.231Z,11.36
2022-10-01T03:05:02.024Z,11.37
2022-10-01T03:10:07.985Z,11.41
2022-10-01T03:15:10.024Z,11.39
2022-10-01T03:20:12.228Z,11.39
2022-10-01T03:25:15.313Z,11.39
2022-10-01T03:30:16.650Z,11.41
2022-10-01T03:35:18.058Z,11.45
2022-10-01T03:40:19.572Z,11.33
2022-10-01T03:45:20.879Z,11.42
2022-10-01T03:50:22.203Z,11.41
2022-10-01T03:55:25.177Z,11.45
2022-10-01T04:00:27.146Z,11.41
2022-10-01T04:05:28.516Z,11.34
2022-10-01T04:10:29.795Z,11.22
2022-10-01T04:15:32.629Z,11.10
2022-10-01T04:20:36.120Z,11.18
2022-10-01T04:25:37.442Z,11.08
2022-10-01T04:30:41.836Z,11.10
2022-10-01T04:35:43.660Z,11.12
2022-10-01T04:40:44.930Z,11.03
2022-10-01T04:45:46.433Z,10.95
2022-10-01T04:50:47.735Z,10.92
2022-10-01T04:55:49.017Z,10.88
2022-10-01T05:00:50.526Z,10.91
2022-10-01T05:05:51.899Z,10.89
2022-10-01T05:10:53.226Z,10.76
2022-10-01T05:15:54.634Z,10.71
2022-10-01T05:20:55.939Z,10.79
2022-10-01T05:25:57.199Z,10.79
2022-10-01T05:31:03.327Z,10.72
2022-10-01T05:36:06.805Z,10.77
2022-10-01T05:41:08.101Z,10.71
2022-10-01T05:46:10.281Z,10.68
2022-10-01T05:51:15.077Z,10.67
2022-10-01T05:56:16.519Z,10.71
2022-10-01T06:01:17.864Z,10.78
2022-10-01T06:06:26.639Z,10.78
2022-10-01T06:11:27.972Z,10.76
2022-10-01T06:16:29.406Z,10.86
2022-10-01T06:21:31.742Z,10.87
2022-10-01T06:26:33.326Z,10.69
2022-10-01T06:31:34.904Z,10.63
2022-10-01T06:36:36.388Z,10.58
2022-10-01T06:41:37.754Z,10.77
2022-10-01T06:46:39.052Z,10.73
2022-10-01T06:52:19.098Z,10.66
2022-10-01T06:57:20.421Z,10.69
2022-10-01T07:02:27.986Z,10.76
2022-10-01T07:07:35.169Z,10.73
2022-10-01T07:12:37.525Z,10.83
2022-10-01T07:17:48.314Z,10.80
2022-10-01T07:22:55.799Z,10.74
2022-10-01T07:27:59.095Z,10.80
2022-10-01T07:33:00.418Z,10.71
2022-10-01T07:38:07.349Z,10.76
2022-10-01T07:43:09.348Z,10.75
2022-10-01T07:48:10.635Z,10.77
2022-10-01T07:53:12.485Z,10.79
2022-10-01T07:58:13.754Z,10.69
2022-10-01T08:03:15.065Z,10.70
2022-10-01T08:08:16.390Z,10.69
2022-10-01T08:13:18.049Z,10.74
2022-10-01T08:18:20.893Z,10.71
2022-10-01T08:23:22.262Z,10.74
2022-10-01T08:28:23.579Z,10.77
2022-10-01T08:33:24.961Z,10.86
2022-10-01T08:38:26.199Z,10.87
2022-10-01T08:43:29.467Z,10.91
2022-10-01T08:48:56.827Z,10.98
2022-10-01T08:54:22.112Z,11.04
2022-10-01T08:59:35.112Z,10.98
2022-10-01T09:04:37.249Z,10.92
2022-10-01T09:09:46.855Z,10.93
2022-10-01T09:15:00.167Z,10.99
2022-10-01T09:20:16.815Z,10.99
2022-10-01T09:25:27.061Z,10.96
2022-10-01T09:30:29.837Z,10.96
2022-10-01T09:35:38.685Z,11.01
2022-10-01T09:40:54.704Z,11.06
2022-10-01T09:45:56.561Z,10.98
2022-10-01T09:51:04.091Z,11.00
2022-10-01T09:56:21.792Z,11.04
2022-10-01T10:01:30.558Z,11.21
2022-10-01T10:06:32.379Z,11.30
2022-10-01T10:11:34.244Z,11.36
2022-10-01T10:16:37.571Z,11.53
2022-10-01T10:21:51.956Z,11.75
2022-10-01T10:26:59.675Z,11.60
2022-10-01T10:32:18.699Z,11.47
2022-10-01T10:37:28.195Z,11.46
2022-10-01T10:42:29.587Z,11.55
2022-10-01T10:47:33.074Z,11.75
2022-10-01T10:52:36.748Z,11.77
2022-10-01T10:57:38.299Z,11.70
2022-10-01T11:02:48.853Z,11.97
2022-10-01T11:07:54.836Z,12.20
2022-10-01T11:13:44.617Z,12.58
2022-10-01T11:19:05.318Z,12.57
2022-10-01T11:24:09.235Z,12.38
2022-10-01T11:29:29.532Z,12.42
2022-10-01T11:34:56.884Z,12.36
2022-10-01T11:40:02.723Z,12.25
2022-10-01T11:45:23.997Z,12.32
2022-10-01T11:50:28.976Z,12.77
2022-10-01T11:56:01.381Z,12.79
2022-10-01T12:01:10.522Z,13.29
2022-10-01T12:06:14.762Z,13.34
2022-10-01T12:11:36.990Z,13.31
2022-10-01T12:16:50.958Z,13.21
2022-10-01T12:22:00.321Z,13.36
2022-10-01T12:27:20.529Z,13.60
2022-10-01T12:32:27.909Z,14.70
2022-10-01T12:37:50.994Z,15.29
2022-10-01T12:43:24.620Z,15.40
2022-10-01T12:48:38.129Z,16.00
2022-10-01T12:53:46.972Z,15.13
2022-10-01T12:58:53.425Z,14.83
2022-10-01T13:04:17.270Z,15.19
2022-10-01T13:09:31.946Z,14.81
2022-10-01T13:14:34.208Z,18.80
2022-10-01T13:19:51.067Z,21.28
2022-10-01T13:25:15.106Z,19.11
2022-10-01T13:30:20.862Z,21.31
2022-10-01T13:35:36.516Z,21.74
2022-10-01T13:40:37.996Z,21.21
2022-10-01T13:45:41.275Z,19.98
2022-10-01T13:51:03.356Z,24.47
2022-10-01T13:56:05.418Z,27.75
2022-10-01T14:01:19.943Z,29.05
2022-10-01T14:06:48.935Z,27.36
2022-10-01T14:12:25.779Z,22.60
2022-10-01T14:17:32.172Z,20.05
2022-10-01T14:22:53.609Z,17.97
2022-10-01T14:28:33.464Z,17.08
2022-10-01T14:34:01.725Z,17.53
2022-10-01T14:39:04.546Z,17.95
2022-10-01T14:44:22.267Z,17.95
2022-10-01T14:49:33.005Z,17.81
2022-10-01T14:55:00.384Z,17.46
2022-10-01T15:00:09.790Z,17.31
2022-10-01T15:05:32.401Z,17.22
2022-10-01T15:10:33.690Z,17.03
2022-10-01T15:15:40.592Z,16.92
2022-10-01T15:20:55.276Z,16.66
2022-10-01T15:26:00.091Z,16.70
2022-10-01T15:31:03.860Z,16.71
2022-10-01T15:36:06.070Z,16.63
2022-10-01T15:41:30.123Z,16.47
2022-10-01T15:46:35.129Z,16.29
2022-10-01T15:51:44.248Z,16.34
2022-10-01T15:56:48.493Z,16.17
2022-10-01T16:01:49.990Z,16.23
2022-10-01T16:06:51.909Z,16.20
2022-10-01T16:12:03.873Z,16.13
2022-10-01T16:17:17.439Z,16.09
2022-10-01T16:22:29.293Z,15.99
2022-10-01T16:27:43.037Z,15.90
2022-10-01T16:32:44.822Z,15.81
2022-10-01T16:37:49.898Z,15.74
2022-10-01T16:42:52.185Z,15.64
2022-10-01T16:47:56.518Z,15.54
2022-10-01T16:53:01.134Z,15.61
2022-10-01T16:58:03.869Z,15.54
2022-10-01T17:03:08.942Z,15.47
2022-10-01T17:08:12.950Z,15.41
2022-10-01T17:13:14.976Z,15.33
2022-10-01T17:18:18.197Z,15.20
2022-10-01T17:23:22.134Z,15.18
2022-10-01T17:28:24.176Z,14.94
2022-10-01T17:33:27.081Z,15.05
2022-10-01T17:38:28.394Z,14.96
2022-10-01T17:43:29.832Z,14.88
2022-10-01T17:48:31.197Z,14.96
2022-10-01T17:53:39.695Z,14.96
2022-10-01T17:58:45.621Z,14.95
2022-10-01T18:03:47.964Z,14.83
2022-10-01T18:08:56.966Z,14.84
2022-10-01T18:13:58.917Z,14.76
2022-10-01T18:24:23.721Z,14.58
2022-10-01T18:29:27.553Z,14.82
2022-10-01T18:34:39.699Z,14.69
2022-10-01T18:39:47.241Z,14.74
2022-10-01T18:44:59.763Z,14.65
2022-10-01T18:50:12.836Z,14.63
2022-10-01T18:55:21.263Z,14.62
2022-10-01T19:00:23.344Z,14.54
2022-10-01T19:05:55.671Z,14.62
2022-10-01T19:11:42.851Z,14.62
2022-10-01T19:16:52.176Z,14.47
2022-10-01T19:22:00.473Z,14.59
2022-10-01T19:27:23.643Z,14.56
2022-10-01T19:32:30.560Z,14.52
2022-10-01T19:37:56.559Z,14.42
2022-10-01T19:43:36.030Z,14.43
2022-10-01T19:48:59.595Z,14.56
2022-10-01T19:54:02.065Z,14.53
2022-10-01T19:59:10.665Z,14.54
2022-10-01T20:04:24.610Z,14.56
2022-10-01T20:09:39.863Z,14.54
2022-10-01T20:15:08.481Z,14.46
2022-10-01T20:20:20.853Z,14.41
2022-10-01T20:25:33.630Z,14.39
2022-10-01T20:30:45.332Z,14.27
2022-10-01T20:36:00.519Z,14.21
2022-10-01T20:41:09.425Z,14.15
2022-10-01T20:46:17.142Z,14.11
2022-10-01T20:51:32.563Z,14.10
2022-10-01T20:56:56.347Z,14.02
2022-10-01T21:02:20.697Z,14.08
2022-10-01T21:07:53.483Z,14.04
2022-10-01T21:13:07.561Z,13.98
2022-10-01T21:18:22.142Z,13.91
2022-10-01T21:23:26.445Z,14.02
2022-10-01T21:28:44.393Z,14.03
2022-10-01T21:34:10.296Z,14.06
2022-10-01T21:39:31.978Z,14.06
2022-10-01T21:44:33.210Z,14.08
2022-10-01T21:49:56.524Z,14.07
2022-10-01T21:55:26.958Z,14.12
2022-10-01T22:00:30.485Z,14.12
2022-10-01T22:05:56.099Z,14.00
2022-10-01T22:11:03.869Z,13.81
2022-10-01T22:16:12.225Z,13.68
2022-10-01T22:21:28.862Z,13.56
2022-10-01T22:26:33.983Z,13.53
2022-10-01T22:31:37.506Z,13.50
2022-10-01T22:36:48.774Z,13.42
2022-10-01T22:42:15.641Z,13.47
2022-10-01T22:47:43.253Z,13.46
2022-10-01T22:52:50.310Z,13.43
2022-10-01T22:58:13.370Z,13.48
2022-10-01T23:03:27.637Z,13.47
2022-10-01T23:08:39.770Z,13.49
2022-10-01T23:13:56.520Z,13.57
2022-10-01T23:19:40.088Z,13.62
2022-10-01T23:24:47.374Z,13.63
2022-10-01T23:30:00.814Z,13.61
2022-10-01T23:35:13.546Z,13.54
2022-10-01T23:40:19.529Z,13.46
2022-10-01T23:45:42.364Z,13.51
2022-10-01T23:51:06.617Z,13.37
2022-10-01T23:56:37.697Z,13.30
